sensor_id;sensor_type;location;lat;lon;timestamp;P1;durP1;ratioP1;P2;durP2;ratioP2
7531;SDS011;3807;49.030;8.714;2023-07-20T00:01:05;3.50;;;1.60;;
7531;SDS011;3807;49.030;8.714;2023-07-20T00:03:30;1.83;;;1.33;;
7531;SDS011;3807;49.030;8.714;2023-07-20T00:05:56;4.18;;;1.92;;
7531;SDS011;3807;49.030;8.714;2023-07-20T00:08:21;2.53;;;1.50;;
7531;SDS011;3807;49.030;8.714;2023-07-20T00:10:47;2.45;;;1.40;;
7531;SDS011;3807;49.030;8.714;2023-07-20T00:13:12;2.30;;;1.52;;
7531;SDS011;3807;49.030;8.714;2023-07-20T00:15:38;1.90;;;1.45;;
7531;SDS011;3807;49.030;8.714;2023-07-20T00:18:05;2.55;;;1.50;;
7531;SDS011;3807;49.030;8.714;2023-07-20T00:20:30;4.12;;;1.70;;
7531;SDS011;3807;49.030;8.714;2023-07-20T00:22:56;2.55;;;1.50;;
7531;SDS011;3807;49.030;8.714;2023-07-20T00:25:23;1.70;;;1.20;;
7531;SDS011;3807;49.030;8.714;2023-07-20T00:27:48;1.70;;;1.40;;
7531;SDS011;3807;49.030;8.714;2023-07-20T00:30:14;4.00;;;1.90;;
7531;SDS011;3807;49.030;8.714;2023-07-20T00:32:39;3.35;;;1.60;;
7531;SDS011;3807;49.030;8.714;2023-07-20T00:35:05;1.33;;;1.20;;
7531;SDS011;3807;49.030;8.714;2023-07-20T00:37:31;3.15;;;1.70;;
7531;SDS011;3807;49.030;8.714;2023-07-20T00:39:56;2.42;;;1.73;;
7531;SDS011;3807;49.030;8.714;2023-07-20T00:42:22;2.95;;;1.58;;
7531;SDS011;3807;49.030;8.714;2023-07-20T00:44:47;3.00;;;1.48;;
7531;SDS011;3807;49.030;8.714;2023-07-20T00:47:13;4.47;;;1.50;;
7531;SDS011;3807;49.030;8.714;2023-07-20T00:49:38;2.97;;;1.40;;
7531;SDS011;3807;49.030;8.714;2023-07-20T00:52:05;2.17;;;1.50;;
7531;SDS011;3807;49.030;8.714;2023-07-20T00:54:32;1.85;;;1.40;;
7531;SDS011;3807;49.030;8.714;2023-07-20T00:56:58;2.15;;;1.50;;
7531;SDS011;3807;49.030;8.714;2023-07-20T00:59:24;2.85;;;1.35;;
7531;SDS011;3807;49.030;8.714;2023-07-20T01:01:50;1.77;;;1.30;;
7531;SDS011;3807;49.030;8.714;2023-07-20T01:04:16;2.85;;;1.65;;
7531;SDS011;3807;49.030;8.714;2023-07-20T01:06:45;1.75;;;1.40;;
7531;SDS011;3807;49.030;8.714;2023-07-20T01:14:30;2.28;;;1.33;;
7531;SDS011;3807;49.030;8.714;2023-07-20T01:16:57;4.05;;;1.60;;
7531;SDS011;3807;49.030;8.714;2023-07-20T01:19:22;2.15;;;1.52;;
7531;SDS011;3807;49.030;8.714;2023-07-20T01:21:51;2.05;;;1.50;;
7531;SDS011;3807;49.030;8.714;2023-07-20T01:32:26;1.75;;;1.30;;
7531;SDS011;3807;49.030;8.714;2023-07-20T01:34:53;3.85;;;1.55;;
7531;SDS011;3807;49.030;8.714;2023-07-20T01:37:20;1.33;;;1.02;;
7531;SDS011;3807;49.030;8.714;2023-07-20T01:39:50;5.12;;;1.58;;
7531;SDS011;3807;49.030;8.714;2023-07-20T01:42:16;2.25;;;1.50;;
7531;SDS011;3807;49.030;8.714;2023-07-20T01:44:41;1.48;;;1.30;;
7531;SDS011;3807;49.030;8.714;2023-07-20T01:47:07;2.62;;;1.30;;
7531;SDS011;3807;49.030;8.714;2023-07-20T01:49:33;2.87;;;1.75;;
7531;SDS011;3807;49.030;8.714;2023-07-20T01:51:58;2.62;;;1.58;;
7531;SDS011;3807;49.030;8.714;2023-07-20T01:54:23;2.50;;;1.33;;
7531;SDS011;3807;49.030;8.714;2023-07-20T01:56:49;3.72;;;1.75;;
7531;SDS011;3807;49.030;8.714;2023-07-20T01:59:14;3.37;;;1.45;;
7531;SDS011;3807;49.030;8.714;2023-07-20T02:01:39;1.98;;;1.50;;
7531;SDS011;3807;49.030;8.714;2023-07-20T02:04:05;3.22;;;1.90;;
7531;SDS011;3807;49.030;8.714;2023-07-20T02:06:30;5.28;;;1.40;;
7531;SDS011;3807;49.030;8.714;2023-07-20T02:08:56;2.28;;;1.42;;
7531;SDS011;3807;49.030;8.714;2023-07-20T02:11:21;2.35;;;1.40;;
7531;SDS011;3807;49.030;8.714;2023-07-20T02:13:47;2.37;;;1.35;;
7531;SDS011;3807;49.030;8.714;2023-07-20T02:16:12;4.05;;;1.40;;
7531;SDS011;3807;49.030;8.714;2023-07-20T02:18:37;2.00;;;1.70;;
7531;SDS011;3807;49.030;8.714;2023-07-20T02:21:03;3.35;;;1.20;;
7531;SDS011;3807;49.030;8.714;2023-07-20T02:23:28;6.07;;;1.75;;
7531;SDS011;3807;49.030;8.714;2023-07-20T02:25:53;4.80;;;1.60;;
7531;SDS011;3807;49.030;8.714;2023-07-20T02:28:19;5.07;;;1.62;;
7531;SDS011;3807;49.030;8.714;2023-07-20T02:30:44;7.28;;;1.50;;
7531;SDS011;3807;49.030;8.714;2023-07-20T02:33:09;3.30;;;1.70;;
7531;SDS011;3807;49.030;8.714;2023-07-20T02:35:35;2.37;;;1.40;;
7531;SDS011;3807;49.030;8.714;2023-07-20T02:38:00;3.97;;;1.60;;
7531;SDS011;3807;49.030;8.714;2023-07-20T02:40:25;2.42;;;1.52;;
7531;SDS011;3807;49.030;8.714;2023-07-20T02:42:52;2.42;;;1.60;;
7531;SDS011;3807;49.030;8.714;2023-07-20T02:45:18;1.83;;;1.27;;
7531;SDS011;3807;49.030;8.714;2023-07-20T02:47:43;3.12;;;1.62;;
7531;SDS011;3807;49.030;8.714;2023-07-20T02:50:09;3.50;;;1.80;;
7531;SDS011;3807;49.030;8.714;2023-07-20T02:52:34;1.90;;;1.50;;
7531;SDS011;3807;49.030;8.714;2023-07-20T02:55:00;4.00;;;1.67;;
7531;SDS011;3807;49.030;8.714;2023-07-20T02:57:25;2.53;;;1.70;;
7531;SDS011;3807;49.030;8.714;2023-07-20T02:59:52;2.37;;;1.27;;
7531;SDS011;3807;49.030;8.714;2023-07-20T03:02:17;2.35;;;1.48;;
7531;SDS011;3807;49.030;8.714;2023-07-20T03:04:42;2.60;;;1.55;;
7531;SDS011;3807;49.030;8.714;2023-07-20T03:07:08;2.55;;;1.70;;
7531;SDS011;3807;49.030;8.714;2023-07-20T03:09:33;3.47;;;1.60;;
7531;SDS011;3807;49.030;8.714;2023-07-20T03:11:59;2.83;;;1.45;;
7531;SDS011;3807;49.030;8.714;2023-07-20T03:14:24;3.28;;;1.30;;
7531;SDS011;3807;49.030;8.714;2023-07-20T03:16:50;2.42;;;1.67;;
7531;SDS011;3807;49.030;8.714;2023-07-20T03:19:15;2.87;;;1.60;;
7531;SDS011;3807;49.030;8.714;2023-07-20T03:21:40;1.83;;;1.60;;
7531;SDS011;3807;49.030;8.714;2023-07-20T03:24:09;2.08;;;1.37;;
7531;SDS011;3807;49.030;8.714;2023-07-20T03:26:34;2.95;;;1.42;;
7531;SDS011;3807;49.030;8.714;2023-07-20T03:29:01;2.97;;;1.67;;
7531;SDS011;3807;49.030;8.714;2023-07-20T03:31:26;6.47;;;1.98;;
7531;SDS011;3807;49.030;8.714;2023-07-20T03:33:52;1.52;;;1.30;;
7531;SDS011;3807;49.030;8.714;2023-07-20T03:36:17;2.37;;;1.77;;
7531;SDS011;3807;49.030;8.714;2023-07-20T03:38:43;3.08;;;1.90;;
7531;SDS011;3807;49.030;8.714;2023-07-20T03:41:08;3.20;;;1.58;;
7531;SDS011;3807;49.030;8.714;2023-07-20T03:43:34;4.28;;;1.60;;
7531;SDS011;3807;49.030;8.714;2023-07-20T03:46:00;4.72;;;1.60;;
7531;SDS011;3807;49.030;8.714;2023-07-20T03:48:25;3.37;;;1.80;;
7531;SDS011;3807;49.030;8.714;2023-07-20T03:50:51;2.62;;;1.60;;
7531;SDS011;3807;49.030;8.714;2023-07-20T03:53:17;2.40;;;1.98;;
7531;SDS011;3807;49.030;8.714;2023-07-20T03:55:47;3.15;;;1.62;;
7531;SDS011;3807;49.030;8.714;2023-07-20T03:58:13;11.30;;;2.00;;
7531;SDS011;3807;49.030;8.714;2023-07-20T04:00:39;3.62;;;1.92;;
7531;SDS011;3807;49.030;8.714;2023-07-20T04:03:05;4.28;;;2.33;;
7531;SDS011;3807;49.030;8.714;2023-07-20T04:05:31;3.22;;;2.00;;
7531;SDS011;3807;49.030;8.714;2023-07-20T04:07:56;2.78;;;1.90;;
7531;SDS011;3807;49.030;8.714;2023-07-20T04:10:22;8.05;;;1.98;;
7531;SDS011;3807;49.030;8.714;2023-07-20T04:12:47;3.75;;;1.87;;
7531;SDS011;3807;49.030;8.714;2023-07-20T04:15:13;3.72;;;1.70;;
7531;SDS011;3807;49.030;8.714;2023-07-20T04:17:39;1.87;;;1.67;;
7531;SDS011;3807;49.030;8.714;2023-07-20T04:20:05;4.75;;;1.90;;
7531;SDS011;3807;49.030;8.714;2023-07-20T04:22:31;2.00;;;1.67;;
7531;SDS011;3807;49.030;8.714;2023-07-20T04:24:57;3.42;;;1.80;;
7531;SDS011;3807;49.030;8.714;2023-07-20T04:27:22;8.57;;;1.90;;
7531;SDS011;3807;49.030;8.714;2023-07-20T04:29:47;3.92;;;2.00;;
7531;SDS011;3807;49.030;8.714;2023-07-20T04:32:13;2.62;;;1.60;;
7531;SDS011;3807;49.030;8.714;2023-07-20T04:34:38;2.40;;;1.90;;
7531;SDS011;3807;49.030;8.714;2023-07-20T04:37:04;7.53;;;2.15;;
7531;SDS011;3807;49.030;8.714;2023-07-20T04:39:29;5.40;;;2.33;;
7531;SDS011;3807;49.030;8.714;2023-07-20T04:41:55;2.60;;;1.92;;
7531;SDS011;3807;49.030;8.714;2023-07-20T04:44:21;4.12;;;1.80;;
7531;SDS011;3807;49.030;8.714;2023-07-20T04:46:46;2.15;;;1.62;;
7531;SDS011;3807;49.030;8.714;2023-07-20T04:49:11;2.40;;;1.87;;
7531;SDS011;3807;49.030;8.714;2023-07-20T04:51:37;3.60;;;1.70;;
7531;SDS011;3807;49.030;8.714;2023-07-20T04:54:03;4.07;;;2.10;;
7531;SDS011;3807;49.030;8.714;2023-07-20T04:56:29;5.00;;;2.22;;
7531;SDS011;3807;49.030;8.714;2023-07-20T04:58:54;6.00;;;2.30;;
7531;SDS011;3807;49.030;8.714;2023-07-20T05:01:19;3.62;;;1.90;;
7531;SDS011;3807;49.030;8.714;2023-07-20T05:03:45;4.90;;;1.70;;
7531;SDS011;3807;49.030;8.714;2023-07-20T05:06:10;3.60;;;1.98;;
7531;SDS011;3807;49.030;8.714;2023-07-20T05:08:36;6.65;;;2.03;;
7531;SDS011;3807;49.030;8.714;2023-07-20T05:11:01;4.35;;;2.08;;
7531;SDS011;3807;49.030;8.714;2023-07-20T05:13:26;5.50;;;1.80;;
7531;SDS011;3807;49.030;8.714;2023-07-20T05:15:52;4.03;;;2.17;;
7531;SDS011;3807;49.030;8.714;2023-07-20T05:18:18;4.18;;;2.17;;
7531;SDS011;3807;49.030;8.714;2023-07-20T05:20:46;4.78;;;2.15;;
7531;SDS011;3807;49.030;8.714;2023-07-20T05:23:12;3.28;;;2.30;;
7531;SDS011;3807;49.030;8.714;2023-07-20T05:25:37;3.17;;;1.58;;
7531;SDS011;3807;49.030;8.714;2023-07-20T05:28:03;4.45;;;1.65;;
7531;SDS011;3807;49.030;8.714;2023-07-20T05:30:28;4.28;;;1.98;;
7531;SDS011;3807;49.030;8.714;2023-07-20T05:32:54;5.28;;;2.00;;
7531;SDS011;3807;49.030;8.714;2023-07-20T05:35:20;7.35;;;3.12;;
7531;SDS011;3807;49.030;8.714;2023-07-20T05:37:45;5.18;;;2.50;;
7531;SDS011;3807;49.030;8.714;2023-07-20T05:40:11;5.75;;;2.12;;
7531;SDS011;3807;49.030;8.714;2023-07-20T05:42:37;11.88;;;2.22;;
7531;SDS011;3807;49.030;8.714;2023-07-20T05:45:04;5.47;;;2.28;;
7531;SDS011;3807;49.030;8.714;2023-07-20T05:47:30;9.90;;;2.25;;
7531;SDS011;3807;49.030;8.714;2023-07-20T05:49:56;6.40;;;2.20;;
7531;SDS011;3807;49.030;8.714;2023-07-20T05:52:21;3.92;;;2.20;;
7531;SDS011;3807;49.030;8.714;2023-07-20T05:54:46;2.40;;;1.65;;
7531;SDS011;3807;49.030;8.714;2023-07-20T05:57:12;3.00;;;1.75;;
7531;SDS011;3807;49.030;8.714;2023-07-20T05:59:37;2.28;;;1.70;;
7531;SDS011;3807;49.030;8.714;2023-07-20T06:02:03;3.25;;;1.73;;
7531;SDS011;3807;49.030;8.714;2023-07-20T06:04:31;3.58;;;2.10;;
7531;SDS011;3807;49.030;8.714;2023-07-20T06:06:57;2.30;;;1.60;;
7531;SDS011;3807;49.030;8.714;2023-07-20T06:09:22;2.55;;;1.60;;
7531;SDS011;3807;49.030;8.714;2023-07-20T06:11:47;3.42;;;1.73;;
7531;SDS011;3807;49.030;8.714;2023-07-20T06:14:13;5.22;;;1.73;;
7531;SDS011;3807;49.030;8.714;2023-07-20T06:16:38;2.83;;;1.73;;
7531;SDS011;3807;49.030;8.714;2023-07-20T06:19:03;5.70;;;1.90;;
7531;SDS011;3807;49.030;8.714;2023-07-20T06:21:29;3.67;;;1.87;;
7531;SDS011;3807;49.030;8.714;2023-07-20T06:23:54;3.17;;;1.35;;
7531;SDS011;3807;49.030;8.714;2023-07-20T06:26:19;3.00;;;1.92;;
7531;SDS011;3807;49.030;8.714;2023-07-20T06:28:45;3.17;;;1.80;;
7531;SDS011;3807;49.030;8.714;2023-07-20T06:31:11;3.60;;;1.73;;
7531;SDS011;3807;49.030;8.714;2023-07-20T06:33:36;3.62;;;1.60;;
7531;SDS011;3807;49.030;8.714;2023-07-20T06:36:02;3.10;;;1.83;;
7531;SDS011;3807;49.030;8.714;2023-07-20T06:38:27;7.87;;;1.98;;
7531;SDS011;3807;49.030;8.714;2023-07-20T06:40:54;4.15;;;1.90;;
7531;SDS011;3807;49.030;8.714;2023-07-20T06:43:19;4.07;;;1.80;;
7531;SDS011;3807;49.030;8.714;2023-07-20T06:45:45;9.48;;;2.03;;
7531;SDS011;3807;49.030;8.714;2023-07-20T06:48:17;3.53;;;1.80;;
7531;SDS011;3807;49.030;8.714;2023-07-20T06:50:42;3.33;;;1.60;;
7531;SDS011;3807;49.030;8.714;2023-07-20T06:53:08;4.28;;;1.30;;
7531;SDS011;3807;49.030;8.714;2023-07-20T06:55:33;2.25;;;1.42;;
7531;SDS011;3807;49.030;8.714;2023-07-20T06:57:58;4.22;;;1.83;;
7531;SDS011;3807;49.030;8.714;2023-07-20T07:00:24;2.35;;;1.62;;
7531;SDS011;3807;49.030;8.714;2023-07-20T07:02:49;2.50;;;1.67;;
7531;SDS011;3807;49.030;8.714;2023-07-20T07:05:14;2.65;;;1.83;;
7531;SDS011;3807;49.030;8.714;2023-07-20T07:07:40;3.55;;;1.87;;
7531;SDS011;3807;49.030;8.714;2023-07-20T07:10:06;2.55;;;1.80;;
7531;SDS011;3807;49.030;8.714;2023-07-20T07:12:32;3.90;;;1.98;;
7531;SDS011;3807;49.030;8.714;2023-07-20T07:14:57;2.40;;;1.65;;
7531;SDS011;3807;49.030;8.714;2023-07-20T07:17:23;4.15;;;2.03;;
7531;SDS011;3807;49.030;8.714;2023-07-20T07:19:48;9.75;;;1.90;;
7531;SDS011;3807;49.030;8.714;2023-07-20T07:22:14;4.32;;;1.77;;
7531;SDS011;3807;49.030;8.714;2023-07-20T07:24:39;4.93;;;1.70;;
7531;SDS011;3807;49.030;8.714;2023-07-20T07:27:07;4.43;;;2.03;;
7531;SDS011;3807;49.030;8.714;2023-07-20T07:29:33;4.80;;;1.70;;
7531;SDS011;3807;49.030;8.714;2023-07-20T07:31:59;5.15;;;1.80;;
7531;SDS011;3807;49.030;8.714;2023-07-20T07:34:24;3.53;;;2.05;;
7531;SDS011;3807;49.030;8.714;2023-07-20T07:36:50;4.60;;;1.92;;
7531;SDS011;3807;49.030;8.714;2023-07-20T07:39:15;5.03;;;1.92;;
7531;SDS011;3807;49.030;8.714;2023-07-20T07:41:41;6.32;;;1.73;;
7531;SDS011;3807;49.030;8.714;2023-07-20T07:44:06;2.75;;;1.90;;
7531;SDS011;3807;49.030;8.714;2023-07-20T07:46:31;6.78;;;1.98;;
7531;SDS011;3807;49.030;8.714;2023-07-20T07:48:57;5.35;;;2.00;;
7531;SDS011;3807;49.030;8.714;2023-07-20T07:51:22;2.85;;;1.37;;
7531;SDS011;3807;49.030;8.714;2023-07-20T07:53:47;3.92;;;1.95;;
7531;SDS011;3807;49.030;8.714;2023-07-20T07:56:14;2.30;;;1.55;;
7531;SDS011;3807;49.030;8.714;2023-07-20T07:58:39;4.50;;;1.75;;
7531;SDS011;3807;49.030;8.714;2023-07-20T08:01:05;4.05;;;1.77;;
7531;SDS011;3807;49.030;8.714;2023-07-20T08:03:30;2.17;;;1.58;;
7531;SDS011;3807;49.030;8.714;2023-07-20T08:05:56;3.80;;;1.73;;
7531;SDS011;3807;49.030;8.714;2023-07-20T08:08:22;3.80;;;1.80;;
7531;SDS011;3807;49.030;8.714;2023-07-20T08:10:48;3.67;;;1.92;;
7531;SDS011;3807;49.030;8.714;2023-07-20T08:13:13;4.10;;;2.10;;
7531;SDS011;3807;49.030;8.714;2023-07-20T08:15:39;2.62;;;1.70;;
7531;SDS011;3807;49.030;8.714;2023-07-20T08:18:05;8.38;;;2.25;;
7531;SDS011;3807;49.030;8.714;2023-07-20T08:20:30;2.90;;;1.60;;
7531;SDS011;3807;49.030;8.714;2023-07-20T08:22:57;3.65;;;2.00;;
7531;SDS011;3807;49.030;8.714;2023-07-20T08:25:23;4.00;;;1.80;;
7531;SDS011;3807;49.030;8.714;2023-07-20T08:27:48;2.75;;;1.62;;
7531;SDS011;3807;49.030;8.714;2023-07-20T08:30:14;2.80;;;1.65;;
7531;SDS011;3807;49.030;8.714;2023-07-20T08:32:39;4.40;;;2.03;;
7531;SDS011;3807;49.030;8.714;2023-07-20T08:35:04;2.75;;;1.80;;
7531;SDS011;3807;49.030;8.714;2023-07-20T08:37:31;4.03;;;2.10;;
7531;SDS011;3807;49.030;8.714;2023-07-20T08:39:56;3.12;;;1.50;;
7531;SDS011;3807;49.030;8.714;2023-07-20T08:42:21;2.53;;;1.67;;
7531;SDS011;3807;49.030;8.714;2023-07-20T08:44:48;3.20;;;1.65;;
7531;SDS011;3807;49.030;8.714;2023-07-20T08:47:14;3.83;;;1.67;;
7531;SDS011;3807;49.030;8.714;2023-07-20T08:49:41;3.33;;;1.73;;
7531;SDS011;3807;49.030;8.714;2023-07-20T08:52:07;2.33;;;1.48;;
7531;SDS011;3807;49.030;8.714;2023-07-20T08:54:34;2.28;;;1.50;;
7531;SDS011;3807;49.030;8.714;2023-07-20T08:57:01;2.33;;;1.85;;
7531;SDS011;3807;49.030;8.714;2023-07-20T08:59:28;3.05;;;1.50;;
7531;SDS011;3807;49.030;8.714;2023-07-20T09:01:54;1.85;;;1.60;;
7531;SDS011;3807;49.030;8.714;2023-07-20T09:04:21;5.82;;;3.67;;
7531;SDS011;3807;49.030;8.714;2023-07-20T09:06:47;2.45;;;1.50;;
7531;SDS011;3807;49.030;8.714;2023-07-20T09:09:14;3.20;;;1.60;;
7531;SDS011;3807;49.030;8.714;2023-07-20T09:11:40;4.25;;;1.42;;
7531;SDS011;3807;49.030;8.714;2023-07-20T09:14:06;3.92;;;1.45;;
7531;SDS011;3807;49.030;8.714;2023-07-20T09:16:32;7.05;;;1.60;;
7531;SDS011;3807;49.030;8.714;2023-07-20T09:19:11;3.03;;;1.42;;
7531;SDS011;3807;49.030;8.714;2023-07-20T09:21:37;5.03;;;1.42;;
7531;SDS011;3807;49.030;8.714;2023-07-20T09:24:02;1.77;;;1.10;;
7531;SDS011;3807;49.030;8.714;2023-07-20T09:26:28;3.20;;;1.40;;
7531;SDS011;3807;49.030;8.714;2023-07-20T09:28:53;4.28;;;1.73;;
7531;SDS011;3807;49.030;8.714;2023-07-20T09:31:21;2.53;;;1.58;;
7531;SDS011;3807;49.030;8.714;2023-07-20T09:33:47;2.58;;;1.58;;
7531;SDS011;3807;49.030;8.714;2023-07-20T09:36:13;5.60;;;1.55;;
7531;SDS011;3807;49.030;8.714;2023-07-20T09:38:42;3.58;;;1.50;;
7531;SDS011;3807;49.030;8.714;2023-07-20T09:41:16;2.90;;;1.48;;
7531;SDS011;3807;49.030;8.714;2023-07-20T09:43:43;2.95;;;1.70;;
7531;SDS011;3807;49.030;8.714;2023-07-20T09:46:10;1.60;;;1.40;;
7531;SDS011;3807;49.030;8.714;2023-07-20T09:48:36;3.97;;;1.60;;
7531;SDS011;3807;49.030;8.714;2023-07-20T09:51:01;3.80;;;1.30;;
7531;SDS011;3807;49.030;8.714;2023-07-20T09:53:26;3.87;;;1.58;;
7531;SDS011;3807;49.030;8.714;2023-07-20T09:55:53;6.72;;;1.60;;
7531;SDS011;3807;49.030;8.714;2023-07-20T09:58:19;2.03;;;1.65;;
7531;SDS011;3807;49.030;8.714;2023-07-20T10:00:45;2.50;;;1.73;;
7531;SDS011;3807;49.030;8.714;2023-07-20T10:03:19;2.28;;;1.50;;
7531;SDS011;3807;49.030;8.714;2023-07-20T10:05:47;2.15;;;1.40;;
7531;SDS011;3807;49.030;8.714;2023-07-20T10:08:17;2.90;;;1.50;;
7531;SDS011;3807;49.030;8.714;2023-07-20T10:10:45;3.50;;;1.40;;
7531;SDS011;3807;49.030;8.714;2023-07-20T10:13:15;1.75;;;1.17;;
7531;SDS011;3807;49.030;8.714;2023-07-20T10:15:50;6.18;;;1.60;;
7531;SDS011;3807;49.030;8.714;2023-07-20T10:18:25;4.18;;;1.50;;
7531;SDS011;3807;49.030;8.714;2023-07-20T10:20:51;5.07;;;1.80;;
7531;SDS011;3807;49.030;8.714;2023-07-20T10:23:19;2.85;;;1.40;;
7531;SDS011;3807;49.030;8.714;2023-07-20T10:25:44;2.62;;;1.50;;
7531;SDS011;3807;49.030;8.714;2023-07-20T10:28:11;2.42;;;1.33;;
7531;SDS011;3807;49.030;8.714;2023-07-20T10:30:38;5.57;;;1.37;;
7531;SDS011;3807;49.030;8.714;2023-07-20T10:33:04;2.40;;;1.10;;
7531;SDS011;3807;49.030;8.714;2023-07-20T10:35:31;2.37;;;1.25;;
7531;SDS011;3807;49.030;8.714;2023-07-20T10:38:16;4.45;;;1.40;;
7531;SDS011;3807;49.030;8.714;2023-07-20T10:40:41;4.53;;;1.20;;
7531;SDS011;3807;49.030;8.714;2023-07-20T10:43:07;1.62;;;1.20;;
7531;SDS011;3807;49.030;8.714;2023-07-20T10:48:02;1.35;;;1.12;;
7531;SDS011;3807;49.030;8.714;2023-07-20T10:50:29;3.62;;;1.48;;
7531;SDS011;3807;49.030;8.714;2023-07-20T10:53:04;2.12;;;1.08;;
7531;SDS011;3807;49.030;8.714;2023-07-20T10:55:34;3.67;;;1.30;;
7531;SDS011;3807;49.030;8.714;2023-07-20T10:58:06;3.28;;;1.20;;
7531;SDS011;3807;49.030;8.714;2023-07-20T11:00:36;4.45;;;1.60;;
7531;SDS011;3807;49.030;8.714;2023-07-20T11:03:02;2.08;;;1.30;;
7531;SDS011;3807;49.030;8.714;2023-07-20T11:05:34;1.92;;;1.48;;
7531;SDS011;3807;49.030;8.714;2023-07-20T11:08:03;4.22;;;1.30;;
7531;SDS011;3807;49.030;8.714;2023-07-20T11:10:30;1.90;;;1.30;;
7531;SDS011;3807;49.030;8.714;2023-07-20T11:18:25;2.20;;;1.17;;
7531;SDS011;3807;49.030;8.714;2023-07-20T11:20:50;2.08;;;1.50;;
7531;SDS011;3807;49.030;8.714;2023-07-20T11:23:17;1.77;;;1.05;;
7531;SDS011;3807;49.030;8.714;2023-07-20T11:25:44;2.53;;;1.25;;
7531;SDS011;3807;49.030;8.714;2023-07-20T11:28:09;3.12;;;1.50;;
7531;SDS011;3807;49.030;8.714;2023-07-20T11:30:38;1.70;;;1.37;;
7531;SDS011;3807;49.030;8.714;2023-07-20T11:33:04;1.95;;;1.30;;
7531;SDS011;3807;49.030;8.714;2023-07-20T11:35:44;1.83;;;1.37;;
7531;SDS011;3807;49.030;8.714;2023-07-20T11:38:13;1.92;;;1.00;;
7531;SDS011;3807;49.030;8.714;2023-07-20T11:40:45;1.90;;;1.10;;
7531;SDS011;3807;49.030;8.714;2023-07-20T11:43:11;1.77;;;1.20;;
7531;SDS011;3807;49.030;8.714;2023-07-20T11:45:38;2.15;;;1.30;;
7531;SDS011;3807;49.030;8.714;2023-07-20T11:48:03;1.50;;;1.25;;
7531;SDS011;3807;49.030;8.714;2023-07-20T11:50:29;1.50;;;1.10;;
7531;SDS011;3807;49.030;8.714;2023-07-20T11:52:55;2.10;;;1.20;;
7531;SDS011;3807;49.030;8.714;2023-07-20T11:55:21;2.08;;;1.25;;
7531;SDS011;3807;49.030;8.714;2023-07-20T11:58:02;1.45;;;1.10;;
7531;SDS011;3807;49.030;8.714;2023-07-20T12:00:32;1.45;;;1.05;;
7531;SDS011;3807;49.030;8.714;2023-07-20T12:02:59;1.30;;;0.85;;
7531;SDS011;3807;49.030;8.714;2023-07-20T12:05:25;1.42;;;1.08;;
7531;SDS011;3807;49.030;8.714;2023-07-20T12:07:51;1.98;;;1.12;;
7531;SDS011;3807;49.030;8.714;2023-07-20T12:10:22;1.40;;;1.12;;
7531;SDS011;3807;49.030;8.714;2023-07-20T12:12:52;3.20;;;1.10;;
7531;SDS011;3807;49.030;8.714;2023-07-20T12:15:24;1.55;;;1.20;;
7531;SDS011;3807;49.030;8.714;2023-07-20T12:17:55;2.03;;;1.20;;
7531;SDS011;3807;49.030;8.714;2023-07-20T12:20:35;3.87;;;1.17;;
7531;SDS011;3807;49.030;8.714;2023-07-20T12:23:08;1.90;;;1.30;;
7531;SDS011;3807;49.030;8.714;2023-07-20T12:25:39;2.45;;;1.40;;
7531;SDS011;3807;49.030;8.714;2023-07-20T12:28:08;1.85;;;1.33;;
7531;SDS011;3807;49.030;8.714;2023-07-20T12:30:39;1.85;;;1.20;;
7531;SDS011;3807;49.030;8.714;2023-07-20T12:33:05;2.25;;;1.00;;
7531;SDS011;3807;49.030;8.714;2023-07-20T12:35:31;2.00;;;1.10;;
7531;SDS011;3807;49.030;8.714;2023-07-20T12:37:57;7.03;;;1.35;;
7531;SDS011;3807;49.030;8.714;2023-07-20T12:40:23;2.25;;;1.20;;
7531;SDS011;3807;49.030;8.714;2023-07-20T12:42:49;2.50;;;1.20;;
7531;SDS011;3807;49.030;8.714;2023-07-20T12:45:14;2.15;;;1.08;;
7531;SDS011;3807;49.030;8.714;2023-07-20T12:47:40;1.83;;;1.00;;
7531;SDS011;3807;49.030;8.714;2023-07-20T12:50:08;2.30;;;1.05;;
7531;SDS011;3807;49.030;8.714;2023-07-20T12:52:36;2.45;;;1.27;;
7531;SDS011;3807;49.030;8.714;2023-07-20T12:55:06;1.77;;;1.15;;
7531;SDS011;3807;49.030;8.714;2023-07-20T12:57:33;2.12;;;1.65;;
7531;SDS011;3807;49.030;8.714;2023-07-20T13:00:00;2.25;;;1.30;;
7531;SDS011;3807;49.030;8.714;2023-07-20T13:02:26;2.15;;;1.08;;
7531;SDS011;3807;49.030;8.714;2023-07-20T13:04:52;1.90;;;1.00;;
7531;SDS011;3807;49.030;8.714;2023-07-20T13:07:17;1.77;;;1.20;;
7531;SDS011;3807;49.030;8.714;2023-07-20T13:09:54;2.05;;;1.23;;
7531;SDS011;3807;49.030;8.714;2023-07-20T13:12:19;1.92;;;1.20;;
7531;SDS011;3807;49.030;8.714;2023-07-20T13:14:45;1.77;;;0.95;;
7531;SDS011;3807;49.030;8.714;2023-07-20T13:17:10;2.47;;;1.10;;
7531;SDS011;3807;49.030;8.714;2023-07-20T13:19:35;2.25;;;1.20;;
7531;SDS011;3807;49.030;8.714;2023-07-20T13:22:01;2.12;;;1.20;;
7531;SDS011;3807;49.030;8.714;2023-07-20T13:24:26;2.60;;;1.00;;
7531;SDS011;3807;49.030;8.714;2023-07-20T13:26:51;1.17;;;1.08;;
7531;SDS011;3807;49.030;8.714;2023-07-20T13:29:17;5.87;;;1.30;;
7531;SDS011;3807;49.030;8.714;2023-07-20T13:31:42;1.60;;;1.00;;
7531;SDS011;3807;49.030;8.714;2023-07-20T13:34:08;2.92;;;1.10;;
7531;SDS011;3807;49.030;8.714;2023-07-20T13:36:33;2.12;;;1.27;;
7531;SDS011;3807;49.030;8.714;2023-07-20T13:38:58;1.35;;;1.02;;
7531;SDS011;3807;49.030;8.714;2023-07-20T13:41:24;2.80;;;1.15;;
7531;SDS011;3807;49.030;8.714;2023-07-20T13:43:49;1.27;;;0.98;;
7531;SDS011;3807;49.030;8.714;2023-07-20T13:46:15;4.97;;;1.30;;
7531;SDS011;3807;49.030;8.714;2023-07-20T13:48:40;3.83;;;1.20;;
7531;SDS011;3807;49.030;8.714;2023-07-20T13:51:05;2.80;;;1.00;;
7531;SDS011;3807;49.030;8.714;2023-07-20T13:53:31;2.72;;;1.10;;
7531;SDS011;3807;49.030;8.714;2023-07-20T13:55:56;1.65;;;1.10;;
7531;SDS011;3807;49.030;8.714;2023-07-20T13:58:22;4.90;;;1.00;;
7531;SDS011;3807;49.030;8.714;2023-07-20T14:00:47;1.55;;;1.02;;
7531;SDS011;3807;49.030;8.714;2023-07-20T14:03:13;1.83;;;1.05;;
7531;SDS011;3807;49.030;8.714;2023-07-20T14:05:38;1.30;;;1.10;;
7531;SDS011;3807;49.030;8.714;2023-07-20T14:08:03;2.33;;;0.90;;
7531;SDS011;3807;49.030;8.714;2023-07-20T14:10:29;1.62;;;1.02;;
7531;SDS011;3807;49.030;8.714;2023-07-20T14:12:54;3.50;;;1.08;;
7531;SDS011;3807;49.030;8.714;2023-07-20T14:15:19;1.90;;;1.00;;
7531;SDS011;3807;49.030;8.714;2023-07-20T14:17:45;1.65;;;1.05;;
7531;SDS011;3807;49.030;8.714;2023-07-20T14:20:10;2.10;;;1.02;;
7531;SDS011;3807;49.030;8.714;2023-07-20T14:22:36;1.25;;;1.08;;
7531;SDS011;3807;49.030;8.714;2023-07-20T14:25:02;0.98;;;0.88;;
7531;SDS011;3807;49.030;8.714;2023-07-20T14:27:27;1.37;;;1.02;;
7531;SDS011;3807;49.030;8.714;2023-07-20T14:29:53;1.12;;;1.00;;
7531;SDS011;3807;49.030;8.714;2023-07-20T14:32:18;1.65;;;1.20;;
7531;SDS011;3807;49.030;8.714;2023-07-20T14:34:43;2.03;;;1.15;;
7531;SDS011;3807;49.030;8.714;2023-07-20T14:37:09;1.20;;;1.10;;
7531;SDS011;3807;49.030;8.714;2023-07-20T14:39:34;1.27;;;0.80;;
7531;SDS011;3807;49.030;8.714;2023-07-20T14:42:00;2.33;;;1.20;;
7531;SDS011;3807;49.030;8.714;2023-07-20T14:44:25;2.97;;;1.10;;
7531;SDS011;3807;49.030;8.714;2023-07-20T14:46:51;2.35;;;1.10;;
7531;SDS011;3807;49.030;8.714;2023-07-20T14:49:16;2.03;;;1.10;;
7531;SDS011;3807;49.030;8.714;2023-07-20T14:51:43;0.77;;;0.77;;
7531;SDS011;3807;49.030;8.714;2023-07-20T14:54:11;2.00;;;1.10;;
7531;SDS011;3807;49.030;8.714;2023-07-20T14:56:37;1.75;;;1.10;;
7531;SDS011;3807;49.030;8.714;2023-07-20T14:59:03;2.47;;;1.42;;
7531;SDS011;3807;49.030;8.714;2023-07-20T15:01:30;1.83;;;0.80;;
7531;SDS011;3807;49.030;8.714;2023-07-20T15:03:56;1.37;;;1.10;;
7531;SDS011;3807;49.030;8.714;2023-07-20T15:06:21;1.17;;;0.88;;
7531;SDS011;3807;49.030;8.714;2023-07-20T15:08:46;1.10;;;0.90;;
7531;SDS011;3807;49.030;8.714;2023-07-20T15:11:12;0.88;;;0.80;;
7531;SDS011;3807;49.030;8.714;2023-07-20T15:13:37;1.48;;;1.00;;
7531;SDS011;3807;49.030;8.714;2023-07-20T15:16:03;1.12;;;0.88;;
7531;SDS011;3807;49.030;8.714;2023-07-20T15:18:28;1.17;;;0.95;;
7531;SDS011;3807;49.030;8.714;2023-07-20T15:20:53;1.45;;;0.90;;
7531;SDS011;3807;49.030;8.714;2023-07-20T15:23:19;1.40;;;1.00;;
7531;SDS011;3807;49.030;8.714;2023-07-20T15:25:45;1.15;;;0.90;;
7531;SDS011;3807;49.030;8.714;2023-07-20T15:28:10;1.60;;;1.10;;
7531;SDS011;3807;49.030;8.714;2023-07-20T15:30:36;1.55;;;1.00;;